Time;durP1;ratioP1;P1;durP2;ratioP2;P2;SDS_P1;SDS_P2;PMS_P1;PMS_P2;Temp;Humidity;BMP_temperature;BMP_pressure;BME280_temperature;BME280_humidity;BME280_pressure;Samples;Min_cycle;Max_cycle;Signal;HPM_P1;HPM_P2
2021/03/21 00:00:04;;;;;;;1.00;0.40;;;3.10;51.00;;;2.46;39.11;101008.41;5011545;28;20053;-53
2021/03/21 00:02:29;;;;;;;1.10;0.50;;;3.00;51.40;;;2.54;38.45;100991.66;5011642;28;20029;-48
2021/03/21 00:04:55;;;;;;;2.17;0.43;;;3.10;50.60;;;2.48;39.09;100998.88;5010433;28;20041;-51
2021/03/21 00:07:21;;;;;;;1.02;0.40;;;3.10;51.20;;;2.41;38.80;100987.22;5012033;28;20033;-53
2021/03/21 00:09:47;;;;;;;1.08;0.40;;;2.90;50.40;;;2.51;38.19;101004.69;5011651;28;20073;-56
2021/03/21 00:12:13;;;;;;;1.02;0.50;;;3.00;50.10;;;2.46;38.56;100995.53;5009590;28;20659;-55
2021/03/21 00:14:39;;;;;;;1.55;0.50;;;3.00;50.80;;;2.52;37.83;100996.06;5010528;28;20046;-47
2021/03/21 00:17:06;;;;;;;1.38;0.43;;;3.00;50.00;;;2.42;38.58;100987.16;5010942;28;20687;-53
2021/03/21 00:19:32;;;;;;;2.88;0.75;;;3.00;50.80;;;2.50;37.92;100991.91;5011323;28;20049;-52
2021/03/21 00:21:57;;;;;;;0.98;0.57;;;3.00;49.80;;;2.45;38.04;100975.88;5010626;28;20520;-53
2021/03/21 00:24:23;;;;;;;1.35;0.40;;;3.00;49.80;;;2.53;37.67;100987.44;5011762;28;20048;-47
2021/03/21 00:26:49;;;;;;;2.00;0.47;;;3.00;49.50;;;2.46;37.71;101006.66;5010903;28;20044;-49
2021/03/21 00:29:15;;;;;;;1.20;0.50;;;3.00;49.70;;;2.45;37.57;100992.13;5011023;28;20042;-55
2021/03/21 00:31:41;;;;;;;1.35;0.40;;;3.00;49.70;;;2.52;37.42;100977.22;5010753;28;20455;-54
2021/03/21 00:34:07;;;;;;;1.17;0.40;;;3.00;49.40;;;2.51;37.13;100978.97;5011304;28;20041;-54
2021/03/21 00:36:33;;;;;;;1.48;0.60;;;3.00;49.20;;;2.48;37.33;100970.56;5010504;28;20085;-54
2021/03/21 00:38:59;;;;;;;1.95;0.40;;;3.00;49.20;;;2.46;37.18;100967.25;5011074;28;20108;-54
2021/03/21 00:41:27;;;;;;;1.48;0.70;;;3.00;48.90;;;2.37;37.81;100983.16;5010337;28;20119;-55
2021/03/21 00:43:55;;;;;;;1.55;0.77;;;3.00;49.50;;;2.28;37.87;100969.91;5009555;28;20534;-52
2021/03/21 00:46:23;;;;;;;2.63;0.57;;;2.90;49.70;;;2.12;38.30;100973.31;5024800;28;20041;-53
2021/03/21 00:48:49;;;;;;;1.55;0.30;;;2.70;50.00;;;2.11;37.77;100975.06;5011133;28;20075;-53
2021/03/21 00:51:16;;;;;;;2.25;0.50;;;2.70;49.10;;;2.14;36.91;100972.34;5010529;28;20426;-54
2021/03/21 00:53:43;;;;;;;1.23;0.50;;;2.70;49.20;;;2.38;37.06;100964.25;5009467;28;20226;-55
2021/03/21 00:56:26;;;;;;;2.08;0.50;;;2.80;49.10;;;2.32;37.30;100961.13;5009440;28;20026;-49
2021/03/21 00:58:51;;;;;;;1.02;0.57;;;2.90;49.10;;;2.29;37.41;100947.59;5009370;28;20066;-49
2021/03/21 01:01:17;;;;;;;0.85;0.35;;;2.80;49.30;;;2.23;37.57;100955.59;5010558;28;20037;-51
2021/03/21 01:03:43;;;;;;;2.10;0.40;;;2.80;49.50;;;2.17;37.63;100951.63;5010693;28;20073;-47
2021/03/21 01:06:09;;;;;;;2.03;0.98;;;2.70;49.50;;;2.30;36.99;100949.25;5010399;28;20580;-53
2021/03/21 01:08:39;;;;;;;0.55;0.32;;;2.80;49.00;;;2.35;37.04;100949.00;5009089;28;20379;-51
2021/03/21 01:11:08;;;;;;;1.35;0.50;;;2.90;49.20;;;2.35;37.11;100923.28;5025025;28;20445;-54
2021/03/21 01:13:35;;;;;;;1.98;0.55;;;2.90;48.70;;;2.36;37.02;100940.38;5010645;28;20432;-52
2021/03/21 01:16:06;;;;;;;0.80;0.40;;;2.90;48.80;;;2.39;36.60;100928.16;5010305;28;20050;-50
2021/03/21 01:18:34;;;;;;;0.93;0.40;;;2.90;48.70;;;2.26;37.03;100919.47;5010630;28;20089;-56
2021/03/21 01:21:02;;;;;;;1.85;0.57;;;2.90;48.90;;;2.17;37.23;100930.22;5010082;28;20116;-55
2021/03/21 01:23:28;;;;;;;0.77;0.40;;;2.70;48.70;;;2.23;36.78;100929.91;5010355;28;20564;-57
2021/03/21 01:25:54;;;;;;;3.38;0.60;;;2.70;48.60;;;2.20;37.15;100918.03;5009988;28;20063;-53
2021/03/21 01:28:32;;;;;;;1.42;0.63;;;2.70;48.80;;;2.10;37.17;100916.00;5010245;28;20133;-50
2021/03/21 01:31:02;;;;;;;1.63;0.55;;;2.70;49.30;;;2.21;37.18;100911.97;5010278;28;20058;-53
2021/03/21 01:33:31;;;;;;;1.08;0.40;;;2.70;48.90;;;2.13;36.99;100919.25;4990784;28;20181;-49
2021/03/21 01:35:57;;;;;;;1.48;0.60;;;2.70;48.90;;;2.09;37.14;100901.50;4990901;28;20034;-52
2021/03/21 01:38:24;;;;;;;1.48;0.63;;;2.70;48.50;;;2.13;37.26;100913.28;5008190;28;20045;-55
2021/03/21 01:40:57;;;;;;;1.63;0.38;;;2.70;49.00;;;2.21;36.20;100898.31;5010128;28;20317;-50
2021/03/21 01:43:52;;;;;;;0.80;0.30;;;2.70;48.70;;;2.24;35.96;100901.53;5010112;28;20169;-52
2021/03/21 01:46:36;;;;;;;2.00;0.80;;;2.70;47.90;;;2.18;36.55;100893.31;4996751;28;20056;-49
2021/03/21 01:49:32;;;;;;;1.30;0.30;;;2.70;48.40;;;2.13;36.45;100896.13;5010171;28;20508;-53
2021/03/21 01:52:01;;;;;;;1.23;0.60;;;2.70;48.30;;;2.16;36.71;100872.84;5008323;28;20492;-54
2021/03/21 01:54:27;;;;;;;1.00;0.60;;;2.70;48.30;;;2.14;37.29;100866.94;5009618;28;20511;-55
2021/03/21 01:56:56;;;;;;;1.00;0.52;;;2.70;49.00;;;2.14;37.16;100887.50;5007907;28;20584;-54
2021/03/21 01:59:35;;;;;;;2.15;0.50;;;2.70;49.00;;;2.12;36.82;100879.03;5009549;28;20451;-54
2021/03/21 02:02:04;;;;;;;2.25;0.40;;;2.70;48.70;;;2.11;37.02;100877.38;5024082;28;20034;-50
2021/03/21 02:04:30;;;;;;;1.70;0.52;;;2.60;48.70;;;2.08;36.96;100874.97;5009476;28;20505;-56
2021/03/21 02:06:59;;;;;;;0.77;0.28;;;2.60;48.70;;;2.17;35.95;100878.81;5007863;28;20061;-55
2021/03/21 02:10:04;;;;;;;1.58;0.45;;;2.60;48.00;;;2.16;36.24;100862.53;5008681;28;20068;-49
2021/03/21 02:13:21;;;;;;;1.63;0.45;;;2.70;48.40;;;2.03;36.96;100884.66;4998017;28;20046;-53
2021/03/21 02:16:01;;;;;;;1.60;0.63;;;2.60;49.00;;;2.02;37.13;100875.28;5008997;28;20396;-51
2021/03/21 02:18:58;;;;;;;1.02;0.50;;;2.60;49.00;;;1.98;37.04;100879.75;5009670;28;20050;-51
2021/03/21 02:22:02;;;;;;;1.48;0.60;;;2.50;48.90;;;2.02;37.14;100898.41;5009093;28;20042;-48
2021/03/21 02:24:44;;;;;;;1.40;0.40;;;2.60;48.60;;;2.01;36.81;100889.03;5007949;28;20583;-50
2021/03/21 02:27:36;;;;;;;3.22;0.65;;;2.60;48.90;;;2.07;37.13;100917.00;5009149;28;20440;-53
2021/03/21 02:30:22;;;;;;;1.30;0.50;;;2.60;48.90;;;1.98;37.76;100873.78;5009423;28;20033;-55
2021/03/21 02:32:52;;;;;;;1.77;0.70;;;2.50;49.20;;;1.85;38.17;100883.06;5007292;28;20091;-52
2021/03/21 02:35:55;;;;;;;1.23;0.50;;;2.40;50.00;;;1.78;38.57;100871.44;5009381;28;20092;-54
2021/03/21 02:38:54;;;;;;;1.75;0.57;;;2.40;50.30;;;1.70;38.24;100888.97;5007485;28;20064;-51
2021/03/21 02:41:42;;;;;;;1.55;0.50;;;2.30;50.30;;;1.68;37.96;100873.63;5384052;23;20053;31
2021/03/21 02:44:21;;;;;;;1.25;0.57;;;2.20;50.60;;;1.72;37.56;100876.88;4909070;29;20059;-52
2021/03/21 02:46:59;;;;;;;1.30;0.68;;;2.20;49.60;;;1.66;38.30;100868.56;4896108;29;20048;-53
2021/03/21 02:49:46;;;;;;;1.35;0.50;;;2.30;50.20;;;1.71;38.01;100864.94;4912525;29;20036;-56
2021/03/21 02:52:19;;;;;;;;;;;2.20;50.10;;;1.74;38.24;100869.94;4896534;29;20119;-52
2021/03/21 02:54:58;;;;;;;3.17;0.63;;;2.30;50.20;;;1.70;38.17;100863.28;4912310;29;20031;-46
2021/03/21 02:57:33;;;;;;;1.45;0.63;;;2.20;49.70;;;1.69;37.75;100862.44;4896098;29;20040;-52
2021/03/21 03:00:22;;;;;;;2.17;0.70;;;2.20;49.40;;;1.61;38.23;100862.00;4912480;29;20064;-48
2021/03/21 03:02:54;;;;;;;1.08;0.40;;;2.20;49.80;;;1.54;37.51;100858.09;4912637;29;20392;-52
2021/03/21 03:05:30;;;;;;;1.05;0.50;;;2.10;49.50;;;1.52;37.85;100858.16;4912169;29;20095;-49
2021/03/21 03:08:16;;;;;;;1.13;0.40;;;2.10;49.80;;;1.52;36.71;100867.59;4912539;29;20115;-48
2021/03/21 03:10:50;;;;;;;0.85;0.47;;;2.00;49.20;;;1.62;37.19;100846.53;4912234;29;20429;-51
2021/03/21 03:13:38;;;;;;;1.90;0.60;;;2.10;48.80;;;1.80;35.39;100860.16;4895026;29;20060;-53
2021/03/21 03:16:25;;;;;;;1.77;0.43;;;2.20;47.30;;;1.77;35.94;100851.78;4895785;29;20063;-52
2021/03/21 03:19:24;;;;;;;1.60;0.45;;;2.30;47.80;;;1.62;36.74;100856.78;4910704;29;20036;-51
2021/03/21 03:22:02;;;;;;;1.02;0.40;;;2.20;48.20;;;1.49;37.70;100847.22;4916025;29;20473;-54
2021/03/21 03:24:28;;;;;;;1.38;0.45;;;2.10;49.40;;;1.43;37.62;100861.19;4899105;29;20036;-52
2021/03/21 03:27:09;;;;;;;2.10;0.52;;;2.00;49.30;;;1.63;36.83;100842.22;4914592;29;20167;-50
2021/03/21 03:30:01;;;;;;;1.67;0.68;;;2.10;48.40;;;1.62;37.05;100838.00;4916631;29;20044;-48
2021/03/21 03:32:28;;;;;;;1.67;0.52;;;2.20;49.20;;;1.63;37.23;100832.78;4915837;29;20044;-51
2021/03/21 03:34:57;;;;;;;1.73;0.75;;;2.20;49.00;;;1.60;36.93;100827.78;4915909;29;20428;-50
2021/03/21 03:37:27;;;;;;;1.45;0.50;;;2.20;48.90;;;1.62;37.45;100831.09;4899360;29;20095;-51
2021/03/21 03:39:53;;;;;;;1.35;0.80;;;2.20;49.20;;;1.59;37.79;100821.00;4916023;29;20036;-51
2021/03/21 03:43:18;;;;;;;1.38;0.93;;;2.10;49.30;;;1.59;37.28;100826.13;4915565;29;20538;-49
2021/03/21 03:46:06;;;;;;;1.10;0.70;;;2.10;49.10;;;1.59;36.92;100828.69;4915658;29;20092;-56
2021/03/21 03:49:01;;;;;;;1.23;0.60;;;2.10;49.00;;;1.57;37.69;100821.97;4915767;29;20048;-55
2021/03/21 03:52:03;;;;;;;2.97;0.98;;;2.10;49.10;;;1.36;38.27;100834.19;4898404;29;20547;-53
2021/03/21 03:54:40;;;;;;;3.95;1.08;;;2.00;49.80;;;1.53;37.90;100836.72;4915499;29;20404;-51
2021/03/21 03:57:53;;;;;;;2.63;0.73;;;2.10;49.30;;;1.43;37.69;100820.09;4898883;29;20063;-53
2021/03/21 04:00:45;;;;;;;2.28;0.55;;;2.00;49.80;;;1.38;38.67;100821.28;4915375;29;20095;-48
2021/03/21 04:03:56;;;;;;;1.38;0.50;;;1.90;50.10;;;1.43;37.99;100820.09;4911927;29;20401;-55
2021/03/21 04:06:58;;;;;;;1.67;0.82;;;2.00;49.60;;;1.33;38.18;100840.31;4915379;29;20059;-52
2021/03/21 04:09:56;;;;;;;3.75;0.75;;;1.90;50.10;;;1.29;38.33;100840.53;4900394;29;20515;-50
2021/03/21 04:12:47;;;;;;;8.00;0.60;;;1.90;50.20;;;1.29;38.63;100835.41;4901614;29;20166;-49
2021/03/21 04:15:23;;;;;;;2.40;0.90;;;1.90;50.40;;;1.29;38.90;100820.00;4915237;29;20119;-53
2021/03/21 04:18:26;;;;;;;1.95;0.57;;;1.90;50.40;;;1.29;38.73;100837.97;4915213;29;20119;-53
2021/03/21 04:21:13;;;;;;;2.25;0.47;;;1.80;50.50;;;1.21;39.08;100829.81;4913764;29;20078;-53
2021/03/21 04:24:04;;;;;;;3.35;0.73;;;1.80;50.50;;;1.13;39.25;100821.66;4900046;29;20507;-50
2021/03/21 04:27:04;;;;;;;11.95;1.92;;;1.70;50.80;;;1.16;39.16;100824.06;4914852;29;20528;-50
2021/03/21 04:29:42;;;;;;;2.30;0.90;;;1.70;50.90;;;1.11;39.42;100823.47;4900512;29;20044;-47
2021/03/21 04:32:17;;;;;;;1.45;0.60;;;1.70;51.30;;;1.12;39.29;100813.13;4914013;29;20040;-57
2021/03/21 04:34:49;;;;;;;2.03;0.60;;;1.60;51.20;;;1.09;39.37;100820.97;4898462;29;20439;-52
2021/03/21 04:37:17;;;;;;;1.27;0.60;;;1.70;51.40;;;1.16;39.24;100821.50;4898181;29;20429;-54
2021/03/21 04:39:44;;;;;;;1.67;0.70;;;1.70;51.40;;;1.13;39.62;100814.78;4914672;29;20040;-50
2021/03/21 04:42:38;;;;;;;1.50;0.85;;;1.70;51.40;;;1.09;39.81;100820.13;4914577;29;20438;-53
2021/03/21 04:45:14;;;;;;;2.72;0.70;;;1.60;51.40;;;1.09;39.08;100807.31;4900071;29;20039;-53
2021/03/21 04:48:01;;;;;;;;;;;1.60;51.20;;;1.06;39.66;100803.16;4915091;29;20036;-49
2021/03/21 04:50:29;;;;;;;1.67;0.70;;;1.60;51.40;;;1.08;39.36;100808.22;4914913;29;20527;-48
2021/03/21 04:53:37;;;;;;;2.33;0.77;;;1.60;51.20;;;1.11;39.00;100813.19;4914397;29;20042;-52
2021/03/21 04:56:32;;;;;;;1.85;1.13;;;1.60;50.90;;;1.21;38.35;100806.72;4914345;29;20460;-45
2021/03/21 04:59:11;;;;;;;2.25;0.80;;;1.70;50.30;;;1.15;38.48;100795.00;4914334;29;20526;-53
2021/03/21 05:02:29;;;;;;;1.30;0.50;;;1.70;50.40;;;1.15;38.64;100796.75;4914441;29;20039;-53
2021/03/21 05:05:13;;;;;;;2.15;0.57;;;1.70;50.60;;;1.06;39.16;100803.16;4897425;29;20048;-53
2021/03/21 05:08:08;;;;;;;1.52;0.75;;;1.60;50.70;;;1.12;38.69;100809.72;4898378;29;20035;-54
2021/03/21 05:10:46;;;;;;;5.22;0.90;;;1.60;50.40;;;1.15;38.79;100799.31;4899710;29;20058;-45
2021/03/21 05:13:59;;;;;;;2.55;1.00;;;1.70;50.40;;;1.11;38.85;100795.22;4897592;29;20497;-53
2021/03/21 05:16:49;;;;;;;4.22;0.90;;;1.60;50.40;;;1.10;38.38;100802.09;4904596;29;20076;-46
2021/03/21 05:19:35;;;;;;;1.70;0.90;;;1.70;50.30;;;1.11;38.71;100802.94;4914135;29;20051;-51
2021/03/21 05:22:42;;;;;;;1.45;0.82;;;1.70;50.40;;;1.15;38.29;100801.88;4914283;29;20452;-49
2021/03/21 05:25:36;;;;;;;0.88;0.43;;;1.70;49.80;;;1.22;38.00;100793.78;4895029;29;20036;-48
2021/03/21 05:28:30;;;;;;;1.20;0.52;;;1.80;49.60;;;1.29;37.17;100809.72;4896858;29;20404;-51
2021/03/21 05:30:56;;;;;;;3.03;0.55;;;1.80;49.30;;;1.24;37.81;100798.84;4898070;29;20044;-54
2021/03/21 05:33:22;;;;;;;1.55;0.40;;;1.80;49.40;;;1.35;36.89;100795.75;4896760;29;20047;-52
2021/03/21 05:35:52;;;;;;;1.65;0.68;;;1.90;48.50;;;1.38;36.80;100791.28;4914019;29;20046;-51
2021/03/21 05:38:52;;;;;;;1.10;0.45;;;2.00;48.60;;;1.70;35.99;100809.34;4913754;29;20040;-53
2021/03/21 05:41:59;;;;;;;1.67;0.60;;;2.00;48.10;;;3.39;33.18;100790.41;4897946;29;20036;-47
2021/03/21 05:44:28;;;;;;;;;;;3.70;45.60;;;4.46;31.43;100783.81;4894905;29;20058;-51
2021/03/21 05:47:55;;;;;;;1.48;0.50;;;5.50;42.20;;;4.84;30.54;100791.66;4913449;29;19926;-50
2021/03/21 05:50:52;;;;;;;4.10;0.90;;;6.40;39.80;;;5.22;29.58;100799.44;4913681;29;20040;-53
2021/03/21 05:54:21;;;;;;;1.73;0.77;;;6.80;40.00;;;5.44;28.97;100791.94;4913392;29;20134;-49
2021/03/21 05:57:17;;;;;;;;;;;7.30;38.60;;;5.44;28.51;100794.50;4873406;29;20498;-51
2021/03/21 06:00:12;;;;;;;1.95;0.60;;;7.60;37.00;;;4.93;29.95;100791.06;4873060;29;20010;-48
2021/03/21 06:03:05;;;;;;;1.80;0.55;;;7.60;37.90;;;5.35;30.09;100779.63;4873050;29;20056;-53
2021/03/21 06:06:07;;;;;;;1.20;0.57;;;7.70;37.80;;;5.05;28.45;100797.19;4872887;29;20045;-48
2021/03/21 06:09:13;;;;;;;1.55;0.60;;;7.90;36.20;;;4.94;29.28;100780.63;4872862;29;20045;-51
2021/03/21 06:12:11;;;;;;;0.52;0.20;;;7.40;36.70;;;5.00;28.05;100806.06;4872812;29;20049;-48
2021/03/21 06:15:43;;;;;;;2.40;0.75;;;7.50;35.80;;;4.69;29.34;100787.50;4872625;29;20097;-51
2021/03/21 06:18:31;;;;;;;1.13;0.55;;;7.20;36.70;;;4.72;29.21;100792.47;4868452;29;20093;-53
2021/03/21 06:21:29;;;;;;;0.80;0.50;;;7.10;37.20;;;4.31;29.50;100799.31;4872329;29;20473;-54
2021/03/21 06:24:32;;;;;;;1.48;0.70;;;6.40;37.80;;;3.95;30.48;100792.13;4872684;29;20096;-50
2021/03/21 06:27:43;;;;;;;1.02;0.82;;;5.40;39.40;;;3.39;31.05;100790.41;4872605;29;20108;-52
2021/03/21 06:30:33;;;;;;;2.72;1.15;;;4.40;41.40;;;3.21;32.12;100815.50;4872491;29;20037;-53
2021/03/21 06:33:45;;;;;;;2.03;0.75;;;4.00;43.10;;;3.22;31.26;100813.75;4891675;29;20040;-55
2021/03/21 06:36:51;;;;;;;2.03;0.80;;;3.80;42.30;;;3.15;32.05;100786.72;4900664;29;20056;-54
2021/03/21 06:39:59;;;;;;;1.45;0.65;;;3.80;43.00;;;3.10;31.57;100797.28;4912492;29;20064;-54
2021/03/21 06:43:11;;;;;;;1.45;0.55;;;3.70;42.60;;;3.23;32.71;100795.66;4910900;29;20400;-54
2021/03/21 06:46:00;;;;;;;1.85;0.80;;;3.70;42.80;;;3.37;32.04;100787.09;4912605;29;20047;-48
2021/03/21 06:49:41;;;;;;;1.88;0.60;;;3.80;42.80;;;3.38;30.06;100787.91;4912484;29;20103;-55
2021/03/21 06:52:28;;;;;;;1.98;0.52;;;3.90;41.30;;;3.51;30.42;100784.53;4912595;29;20047;-54
2021/03/21 06:55:33;;;;;;;1.20;0.60;;;4.00;41.50;;;3.55;30.70;100785.19;4912188;29;20066;-53
2021/03/21 06:58:14;;;;;;;2.22;0.50;;;4.10;41.80;;;3.76;31.92;100780.47;4912243;29;20047;-51
2021/03/21 07:00:56;;;;;;;1.02;0.60;;;4.30;43.00;;;3.69;30.06;100789.50;4912041;29;20087;-52
2021/03/21 07:03:46;;;;;;;1.35;0.68;;;4.30;41.40;;;3.72;32.57;100786.75;4895597;29;20456;-50
2021/03/21 07:06:56;;;;;;;1.73;0.57;;;4.50;43.20;;;3.93;29.28;100775.94;4912328;29;20059;-55
2021/03/21 07:09:45;;;;;;;0.80;0.40;;;4.60;41.60;;;4.05;29.49;100770.94;4912013;29;20091;-52
2021/03/21 07:12:23;;;;;;;1.38;0.60;;;4.60;40.90;;;4.00;30.41;100766.06;4912026;29;20467;-55
2021/03/21 07:15:24;;;;;;;3.33;1.30;;;4.60;41.60;;;3.97;29.89;100767.09;4912632;29;20096;-53
2021/03/21 07:17:56;;;;;;;0.77;0.40;;;4.50;41.20;;;4.10;29.96;100758.59;4911995;29;20643;-51
2021/03/21 07:20:40;;;;;;;1.58;0.68;;;4.60;40.80;;;4.18;29.72;100754.63;4912261;29;20044;-53
2021/03/21 07:23:57;;;;;;;2.17;0.43;;;4.70;40.60;;;4.10;29.19;100753.44;4912338;29;20036;-53
2021/03/21 07:26:27;;;;;;;2.35;0.50;;;4.70;39.90;;;4.18;28.38;100748.63;4912222;29;20048;-55
2021/03/21 07:29:23;;;;;;;1.40;0.63;;;4.70;39.10;;;4.26;28.94;100747.19;4912189;29;20043;-55
2021/03/21 07:32:10;;;;;;;2.17;0.77;;;4.70;40.40;;;4.41;29.23;100742.00;4912188;29;20336;-55
2021/03/21 07:34:57;;;;;;;1.88;0.80;;;4.90;40.30;;;4.61;28.98;100726.88;4911384;29;20377;-54
2021/03/21 07:37:56;;;;;;;2.17;0.73;;;5.00;39.80;;;4.91;27.02;100716.28;4911611;29;20127;-49
2021/03/21 07:40:31;;;;;;;1.65;0.50;;;5.20;38.40;;;5.07;28.06;100712.69;4911541;29;20452;-54
2021/03/21 07:43:37;;;;;;;1.80;0.77;;;5.40;39.80;;;5.24;27.78;100710.59;4911526;29;20048;-53
2021/03/21 07:46:42;;;;;;;1.38;0.52;;;5.70;39.30;;;5.43;27.47;100699.00;4911407;29;20496;-52
2021/03/21 07:49:45;;;;;;;1.42;0.47;;;5.80;39.00;;;5.76;27.06;100703.56;4902345;29;20053;-45
2021/03/21 07:52:42;;;;;;;2.22;1.10;;;6.10;38.80;;;5.89;28.08;100696.63;4911082;29;20052;-57
2021/03/21 07:55:26;;;;;;;1.92;0.57;;;6.30;39.60;;;6.10;26.96;100689.94;4911568;29;20116;-56
2021/03/21 07:58:26;;;;;;;4.82;0.63;;;6.60;38.90;;;6.09;27.39;100687.47;4911377;29;20412;-53
2021/03/21 08:00:53;;;;;;;2.03;0.80;;;6.50;39.00;;;6.24;28.03;100684.56;4909727;29;20059;-50
2021/03/21 08:03:30;;;;;;;1.88;0.70;;;6.70;38.40;;;6.24;27.30;100687.16;4911479;29;20035;-54
2021/03/21 08:05:59;;;;;;;1.50;0.70;;;6.70;38.30;;;6.66;27.89;100679.75;4912762;29;20040;-55
2021/03/21 08:08:29;;;;;;;1.77;1.00;;;7.00;39.10;;;7.03;28.45;100677.03;4929588;29;20229;-54
2021/03/21 08:11:01;;;;;;;2.53;0.77;;;7.30;40.60;;;7.13;28.94;100665.81;4914938;29;20434;-58
2021/03/21 08:13:41;;;;;;;2.88;1.75;;;7.50;40.90;;;7.12;28.98;100677.13;4910042;29;20094;-51
2021/03/21 08:16:15;;;;;;;2.72;1.30;;;7.60;41.00;;;7.17;29.60;100671.59;4909751;29;20146;-55
2021/03/21 08:18:45;;;;;;;1.75;0.93;;;7.60;41.20;;;7.04;26.51;100676.06;4915300;29;20440;-50
2021/03/21 08:21:30;;;;;;;1.10;0.45;;;7.60;37.90;;;6.77;25.41;100679.78;4913044;29;20507;-56
2021/03/21 08:24:21;;;;;;;2.10;0.60;;;7.40;36.70;;;6.58;25.31;100669.19;4914436;29;20040;-53
2021/03/21 08:26:47;;;;;;;2.53;0.63;;;7.20;36.80;;;6.61;26.50;100674.13;4914821;29;20116;-52
2021/03/21 08:29:26;;;;;;;2.15;0.40;;;7.10;37.20;;;6.31;25.88;100672.03;4914917;29;20032;-52
2021/03/21 08:32:12;;;;;;;1.25;0.50;;;7.00;36.70;;;6.47;25.14;100664.78;4914245;29;20098;-54
2021/03/21 08:34:39;;;;;;;4.50;0.52;;;6.90;36.70;;;6.60;25.97;100654.34;4914573;29;20433;-52
2021/03/21 08:37:34;;;;;;;1.38;0.65;;;7.00;36.40;;;6.50;25.37;100667.16;4923122;29;20048;-53
2021/03/21 08:40:37;;;;;;;1.45;0.50;;;7.00;36.30;;;6.61;26.10;100643.88;4912927;29;20052;-52
2021/03/21 08:43:13;;;;;;;2.67;1.27;;;7.00;36.40;;;6.87;25.14;100649.69;4916076;29;20052;-53
2021/03/21 08:45:42;;;;;;;;;;;7.20;36.50;;;7.24;24.74;100667.59;4912154;29;20540;-55
2021/03/21 08:48:12;;;;;;;2.55;0.80;;;7.50;36.90;;;7.00;25.17;100659.94;4912299;29;19919;-51
2021/03/21 08:50:44;;;;;;;2.28;0.80;;;7.40;36.20;;;6.87;24.76;100670.41;4918250;29;20115;-49
2021/03/21 08:53:32;;;;;;;2.03;0.50;;;7.40;35.50;;;6.81;25.70;100660.50;4894220;29;20045;-56
2021/03/21 08:56:14;;;;;;;2.03;0.70;;;7.40;36.30;;;7.06;24.53;100663.84;4898689;29;20047;-55
2021/03/21 08:58:41;;;;;;;1.77;0.80;;;7.40;35.90;;;7.10;24.76;100665.22;4914450;29;20139;-53
2021/03/21 09:01:26;;;;;;;3.40;1.23;;;7.50;35.90;;;7.40;25.60;100655.09;4914306;29;20059;-52
2021/03/21 09:04:18;;;;;;;2.92;1.02;;;7.80;36.90;;;7.45;24.96;100659.91;4914147;29;20499;-50
2021/03/21 09:06:47;;;;;;;4.65;0.73;;;7.80;36.00;;;7.21;25.20;100652.28;4914341;29;20051;-51
2021/03/21 09:09:29;;;;;;;1.23;0.60;;;7.80;36.10;;;7.32;24.69;100642.72;4914318;29;20395;-53
2021/03/21 09:11:59;;;;;;;2.55;0.50;;;7.80;36.00;;;7.43;25.45;100644.50;4913277;29;20043;-53
2021/03/21 09:14:32;;;;;;;1.48;0.70;;;7.90;36.80;;;8.08;24.20;100658.34;4914046;29;20048;-54
2021/03/21 09:17:26;;;;;;;2.70;0.70;;;8.30;36.00;;;8.12;24.43;100647.59;4913201;29;20254;-52
2021/03/21 09:19:59;;;;;;;2.22;0.82;;;8.50;35.80;;;7.84;24.35;100646.41;4913982;29;20466;-50
2021/03/21 09:22:37;;;;;;;2.28;0.70;;;8.40;35.30;;;7.93;24.27;100661.22;4913519;29;20039;-56
2021/03/21 09:25:32;;;;;;;5.53;1.52;;;8.30;35.00;;;7.81;23.68;100646.63;4913284;29;20075;-54
2021/03/21 09:27:59;;;;;;;2.13;0.70;;;8.30;34.90;;;7.83;24.48;100662.91;4911989;29;20112;-54
2021/03/21 09:30:44;;;;;;;1.60;0.60;;;8.30;35.50;;;7.39;23.63;100645.66;4912363;29;20060;-54
2021/03/21 09:33:55;;;;;;;4.03;1.38;;;8.20;34.10;;;7.04;24.33;100656.19;4912136;29;20047;-54
2021/03/21 09:36:58;;;;;;;2.25;0.80;;;7.80;35.10;;;6.88;24.66;100666.88;4894319;29;20138;-58
2021/03/21 09:39:40;;;;;;;3.35;0.90;;;7.50;35.40;;;7.00;24.70;100659.94;4888949;29;20374;-55
2021/03/21 09:42:12;;;;;;;1.70;0.93;;;7.50;35.40;;;6.97;24.12;100667.94;4876153;29;20139;-50
2021/03/21 09:44:43;;;;;;;1.65;0.57;;;7.50;35.20;;;6.90;24.39;100626.13;4891876;29;20055;-53
2021/03/21 09:47:28;;;;;;;1.52;1.00;;;7.40;35.30;;;7.08;24.46;100647.22;4876163;29;20436;-53
2021/03/21 09:50:15;;;;;;;1.50;0.70;;;7.50;35.20;;;6.82;24.95;100628.47;4890953;29;20050;-55
2021/03/21 09:53:18;;;;;;;2.70;0.55;;;7.40;35.60;;;6.88;24.65;100624.59;4872819;29;20116;-53
2021/03/21 09:55:55;;;;;;;2.85;0.85;;;7.40;35.70;;;7.13;24.88;100618.34;4890814;29;20055;-49
2021/03/21 09:59:02;;;;;;;1.90;1.25;;;7.50;36.20;;;7.57;24.59;100636.44;4891028;29;20068;-52
2021/03/21 10:01:52;;;;;;;2.30;1.10;;;7.80;36.00;;;7.65;24.47;100626.28;4891146;29;20132;-54
2021/03/21 10:04:34;;;;;;;1.58;0.82;;;8.10;35.60;;;7.44;24.07;100643.53;4889088;29;20469;-54
2021/03/21 10:07:14;;;;;;;2.10;1.42;;;8.00;35.00;;;7.58;24.43;100626.88;4890468;29;20056;-48
2021/03/21 10:09:44;;;;;;;1.55;0.75;;;8.00;35.30;;;7.48;23.67;100644.97;4876112;29;20045;-53
2021/03/21 10:12:11;;;;;;;1.30;0.80;;;8.10;34.30;;;7.57;23.88;100618.28;4890108;29;20044;-53
2021/03/21 10:14:37;;;;;;;1.92;0.80;;;8.00;34.40;;;7.43;23.93;100621.16;4895378;29;20711;-58
2021/03/21 10:17:18;;;;;;;2.13;0.88;;;8.00;34.50;;;7.61;22.91;100631.81;4912430;29;20060;-55
2021/03/21 10:19:47;;;;;;;1.73;0.90;;;8.10;33.80;;;7.63;23.44;100612.59;4913040;29;20036;-48
2021/03/21 10:22:25;;;;;;;2.28;0.98;;;8.10;33.90;;;7.90;23.60;100603.56;4912708;29;20415;-54
2021/03/21 10:24:57;;;;;;;1.70;1.10;;;8.30;34.60;;;8.07;23.44;100613.38;4911005;29;20517;-54
2021/03/21 10:27:39;;;;;;;1.77;1.10;;;8.40;34.60;;;8.17;22.63;100595.31;4912681;29;20040;-54
2021/03/21 10:30:23;;;;;;;1.25;0.93;;;8.70;33.90;;;8.25;23.65;100587.72;4912084;29;20401;-54
2021/03/21 10:33:01;;;;;;;2.67;1.17;;;8.70;34.10;;;8.86;23.36;100583.44;4912589;29;20152;-48
2021/03/21 10:35:30;;;;;;;2.78;1.70;;;9.00;34.50;;;8.82;23.80;100589.03;4893570;29;20131;-52
2021/03/21 10:38:05;;;;;;;3.85;2.35;;;9.30;34.70;;;8.81;23.15;100569.19;4893472;29;20048;-52
2021/03/21 10:40:30;;;;;;;3.28;1.55;;;9.30;34.30;;;8.55;23.27;100573.97;4911155;29;20036;-52
2021/03/21 10:43:19;;;;;;;4.53;1.48;;;9.20;33.20;;;8.49;22.86;100564.94;4912254;29;20083;-57
2021/03/21 10:45:50;;;;;;;4.95;2.40;;;9.00;33.70;;;8.98;23.55;100563.34;4884824;29;20071;-55
2021/03/21 10:48:18;;;;;;;2.72;1.85;;;9.30;34.60;;;9.23;22.87;100549.06;4912484;29;20103;-56
2021/03/21 10:51:04;;;;;;;2.58;1.67;;;9.50;33.80;;;9.42;22.17;100543.91;4912225;29;20056;-55
2021/03/21 10:53:46;;;;;;;2.63;1.30;;;9.80;34.40;;;9.53;22.93;100535.97;4912168;29;20543;-56
2021/03/21 10:56:22;;;;;;;2.88;1.38;;;9.90;33.80;;;9.57;21.68;100537.31;4912064;29;20040;-57
2021/03/21 10:59:08;;;;;;;;;;;10.10;32.80;;;9.95;21.26;100525.25;4912852;29;20044;-52
2021/03/21 11:01:45;;;;;;;1.88;1.30;;;10.10;32.70;;;10.36;21.41;100507.69;4912277;29;20397;-52
2021/03/21 11:04:33;;;;;;;2.20;0.93;;;10.50;32.50;;;10.20;20.30;100509.09;4911196;29;20039;-55
2021/03/21 11:07:14;;;;;;;2.70;1.38;;;10.70;31.30;;;10.59;21.14;100508.94;4909729;29;20037;-56
2021/03/21 11:09:58;;;;;;;3.13;0.85;;;10.70;32.80;;;10.44;20.00;100524.22;4907397;29;20036;-52
2021/03/21 11:12:37;;;;;;;2.00;0.80;;;10.80;31.30;;;10.56;20.33;100504.03;4909958;29;20408;-51
2021/03/21 11:15:38;;;;;;;2.40;0.55;;;10.90;32.10;;;9.78;20.88;100486.94;4910647;29;20040;-53
2021/03/21 11:18:30;;;;;;;2.63;1.27;;;10.50;31.20;;;10.67;20.98;100493.44;4912119;29;20040;-57
2021/03/21 11:21:14;;;;;;;1.95;0.82;;;10.70;32.80;;;10.36;20.04;100466.00;4912087;29;20507;-50
2021/03/21 11:24:01;;;;;;;2.45;1.35;;;10.80;31.20;;;9.85;22.13;100478.44;4911706;29;20083;-50
2021/03/21 11:26:38;;;;;;;3.88;1.55;;;10.40;33.10;;;10.14;21.83;100488.78;4911126;29;20048;-49
2021/03/21 11:29:04;;;;;;;1.52;0.70;;;10.50;34.10;;;9.68;21.33;100453.13;4910260;29;20040;-55
2021/03/21 11:31:42;;;;;;;1.90;0.60;;;10.30;31.80;;;10.15;21.67;100459.19;4912286;29;20476;-57
2021/03/21 11:34:35;;;;;;;2.45;0.50;;;10.50;32.80;;;10.26;20.53;100451.25;4909603;29;20515;-55